Time;durP1;ratioP1;P1;durP2;ratioP2;P2;SDS_P1;SDS_P2;PMS_P1;PMS_P2;Temp;Humidity;BMP_temperature;BMP_pressure;BME280_temperature;BME280_humidity;BME280_pressure;Samples;Min_cycle;Max_cycle;Signal;HPM_P1;HPM_P2
2021/07/01 00:02:22;;;;;;;1.70;0.70;;;;;;;;;;4921261;29;20142;-87
2021/07/01 00:05:09;;;;;;;5.20;1.58;;;;;;;;;;4916167;29;20086;-86
2021/07/01 00:07:54;;;;;;;1.20;0.93;;;;;;;;;;4933130;29;20034;-87
2021/07/01 00:10:39;;;;;;;3.40;1.48;;;;;;;;;;4927933;29;20513;-87
2021/07/01 00:13:24;;;;;;;1.60;1.00;;;;;;;;;;4945843;28;20043;-88
2021/07/01 00:16:09;;;;;;;0.95;0.77;;;;;;;;;;4936753;28;20027;-87
2021/07/01 00:18:55;;;;;;;2.53;1.10;;;;;;;;;;4944104;28;20023;-87
2021/07/01 00:21:40;;;;;;;2.05;0.70;;;;;;;;;;4926893;28;20038;-87
2021/07/01 00:24:25;;;;;;;1.83;0.68;;;;;;;;;;4938598;28;20027;-87
2021/07/01 00:27:10;;;;;;;1.60;0.80;;;;;;;;;;4938329;28;20035;-87
2021/07/01 00:29:56;;;;;;;3.85;1.27;;;;;;;;;;4941009;28;20042;-87
2021/07/01 00:32:42;;;;;;;0.70;0.70;;;;;;;;;;4937572;28;20033;-87
2021/07/01 00:35:27;;;;;;;1.48;0.73;;;;;;;;;;4926122;28;20102;-87
2021/07/01 00:38:12;;;;;;;1.85;0.80;;;;;;;;;;4936091;28;20110;-87
2021/07/01 00:40:57;;;;;;;1.00;0.85;;;;;;;;;;4930280;28;20174;-87
2021/07/01 00:43:43;;;;;;;0.93;0.70;;;;;;;;;;4940427;28;20487;-87
2021/07/01 00:46:29;;;;;;;1.10;0.70;;;;;;;;;;4936864;28;20552;-87
2021/07/01 00:49:14;;;;;;;2.47;0.70;;;;;;;;;;4938323;28;20587;-87
2021/07/01 00:52:00;;;;;;;3.13;1.17;;;;;;;;;;4925963;28;20050;-88
2021/07/01 00:54:45;;;;;;;2.50;1.05;;;;;;;;;;4942751;28;20117;-88
2021/07/01 00:57:31;;;;;;;0.57;0.57;;;;;;;;;;4936106;28;20486;-88
2021/07/01 01:00:30;;;;;;;2.13;0.70;;;;;;;;;;4936721;28;20118;-88
2021/07/01 01:03:15;;;;;;;0.75;0.70;;;;;;;;;;4941940;28;20030;-87
2021/07/01 01:06:02;;;;;;;1.30;0.60;;;;;;;;;;4945840;28;20035;-87
2021/07/01 01:08:47;;;;;;;2.42;1.25;;;;;;;;;;4936164;28;20478;-87
2021/07/01 01:11:33;;;;;;;1.05;0.80;;;;;;;;;;4939413;28;20038;-86
2021/07/01 01:14:18;;;;;;;2.58;0.90;;;;;;;;;;4931826;29;20139;-88
2021/07/01 01:17:03;;;;;;;2.40;0.70;;;;;;;;;;4931324;29;20521;-87
2021/07/01 01:19:48;;;;;;;0.95;0.75;;;;;;;;;;4931379;29;20189;-87
2021/07/01 01:22:34;;;;;;;0.77;0.65;;;;;;;;;;4932664;29;20039;-89
2021/07/01 01:25:19;;;;;;;1.63;0.60;;;;;;;;;;4934125;29;20042;-87
2021/07/01 01:28:04;;;;;;;2.03;0.80;;;;;;;;;;4914832;29;20454;-87
2021/07/01 01:30:50;;;;;;;1.15;0.80;;;;;;;;;;4932685;29;20543;-87
2021/07/01 01:33:35;;;;;;;1.00;0.65;;;;;;;;;;4936357;29;20097;-88
2021/07/01 01:36:20;;;;;;;0.63;0.60;;;;;;;;;;4936162;29;20086;-87
2021/07/01 01:39:05;;;;;;;2.58;0.90;;;;;;;;;;4912632;29;20134;-88
2021/07/01 01:41:51;;;;;;;3.60;1.25;;;;;;;;;;4934588;29;20108;-88
2021/07/01 01:44:36;;;;;;;3.50;1.38;;;;;;;;;;4931456;29;20085;-87
2021/07/01 01:47:21;;;;;;;1.25;0.80;;;;;;;;;;4921001;29;20456;-87
2021/07/01 01:50:07;;;;;;;1.85;0.65;;;;;;;;;;4934668;29;20015;-87
2021/07/01 01:52:52;;;;;;;2.10;0.60;;;;;;;;;;4934435;29;20526;-87
2021/07/01 01:55:37;;;;;;;0.73;0.73;;;;;;;;;;4935800;29;20066;-88
2021/07/01 01:58:22;;;;;;;1.23;0.65;;;;;;;;;;4938314;29;20036;-87
2021/07/01 02:01:08;;;;;;;0.80;0.60;;;;;;;;;;4928206;29;20039;-87
2021/07/01 02:03:53;;;;;;;1.00;0.60;;;;;;;;;;4922734;29;20039;-88
2021/07/01 02:06:38;;;;;;;1.98;0.70;;;;;;;;;;4934122;29;20115;-88
2021/07/01 02:09:23;;;;;;;1.02;0.70;;;;;;;;;;4929179;29;20066;-88
2021/07/01 02:12:09;;;;;;;0.90;0.70;;;;;;;;;;4936126;29;20074;-88
2021/07/01 02:14:54;;;;;;;1.25;0.50;;;;;;;;;;4931134;29;20059;-89
2021/07/01 02:17:39;;;;;;;2.50;0.50;;;;;;;;;;4918170;29;20119;-88
2021/07/01 02:20:25;;;;;;;2.63;0.73;;;;;;;;;;4917412;29;20043;-88
2021/07/01 02:23:11;;;;;;;2.45;0.80;;;;;;;;;;4938098;29;20034;-87
2021/07/01 02:25:56;;;;;;;0.65;0.65;;;;;;;;;;4928314;29;20056;-88
2021/07/01 02:28:42;;;;;;;0.60;0.60;;;;;;;;;;4917105;29;20133;-88
2021/07/01 02:31:27;;;;;;;0.60;0.60;;;;;;;;;;4933293;29;20113;-88
2021/07/01 02:34:12;;;;;;;0.93;0.80;;;;;;;;;;4935959;29;20031;-88
2021/07/01 02:36:57;;;;;;;0.98;0.63;;;;;;;;;;4926974;29;20475;-88
2021/07/01 02:39:43;;;;;;;1.60;0.68;;;;;;;;;;4933445;29;20113;-87
2021/07/01 02:42:28;;;;;;;0.60;0.60;;;;;;;;;;4927849;29;20055;-88
2021/07/01 02:45:13;;;;;;;2.78;0.70;;;;;;;;;;4918601;29;20027;-88
2021/07/01 02:47:59;;;;;;;1.05;0.70;;;;;;;;;;4933855;29;20474;-88
2021/07/01 02:50:44;;;;;;;1.20;0.77;;;;;;;;;;4918342;29;20034;-86
2021/07/01 02:53:30;;;;;;;2.25;0.70;;;;;;;;;;4938280;29;20030;-87
2021/07/01 02:56:15;;;;;;;2.60;0.57;;;;;;;;;;4917658;29;20028;-87
2021/07/01 02:59:01;;;;;;;0.70;0.70;;;;;;;;;;4931685;29;20033;-86
2021/07/01 03:01:47;;;;;;;0.70;0.70;;;;;;;;;;4927745;29;20027;-87
2021/07/01 03:04:32;;;;;;;1.92;0.80;;;;;;;;;;4931677;28;20027;-88
2021/07/01 03:07:17;;;;;;;2.70;0.73;;;;;;;;;;4925592;29;20525;-88
2021/07/01 03:10:03;;;;;;;0.90;0.70;;;;;;;;;;4937627;29;20046;-88
2021/07/01 03:12:49;;;;;;;2.10;0.80;;;;;;;;;;4915197;29;20499;-89
2021/07/01 03:15:34;;;;;;;1.30;0.80;;;;;;;;;;4928045;29;20283;-91
2021/07/01 03:18:19;;;;;;;1.23;0.70;;;;;;;;;;4917802;29;20443;-88
2021/07/01 03:21:04;;;;;;;0.80;0.80;;;;;;;;;;4942741;29;20113;-88
2021/07/01 03:23:49;;;;;;;2.63;0.77;;;;;;;;;;4919008;29;20036;-88
2021/07/01 03:26:35;;;;;;;1.55;0.80;;;;;;;;;;4930712;29;20152;-88
2021/07/01 03:29:20;;;;;;;1.40;0.70;;;;;;;;;;4916351;29;20452;-87
2021/07/01 03:32:05;;;;;;;3.05;1.10;;;;;;;;;;4934657;29;20027;-88
2021/07/01 03:34:51;;;;;;;1.55;0.90;;;;;;;;;;4928951;29;20035;-88
2021/07/01 03:37:36;;;;;;;3.80;1.40;;;;;;;;;;4932065;29;20375;-89
2021/07/01 03:40:21;;;;;;;1.10;0.60;;;;;;;;;;4933041;29;20023;-89
2021/07/01 03:43:06;;;;;;;2.95;0.80;;;;;;;;;;4920281;29;20118;-89
2021/07/01 03:45:52;;;;;;;0.95;0.70;;;;;;;;;;4917289;29;20028;-89
2021/07/01 03:48:37;;;;;;;0.68;0.60;;;;;;;;;;4935154;29;20026;-88
2021/07/01 03:51:22;;;;;;;1.05;0.90;;;;;;;;;;4934257;29;20031;-88
2021/07/01 03:54:07;;;;;;;2.05;0.93;;;;;;;;;;4929815;29;20031;-88
2021/07/01 03:56:53;;;;;;;0.70;0.70;;;;;;;;;;4938574;29;20027;-85
2021/07/01 03:59:38;;;;;;;1.40;0.88;;;;;;;;;;4926628;29;20034;-87
2021/07/01 04:02:23;;;;;;;3.05;0.90;;;;;;;;;;4930275;29;20039;-87
2021/07/01 04:05:09;;;;;;;1.20;0.75;;;;;;;;;;4937548;29;20038;-86
2021/07/01 04:07:54;;;;;;;0.68;0.68;;;;;;;;;;4931301;29;20095;-86
2021/07/01 04:10:39;;;;;;;0.75;0.70;;;;;;;;;;4919305;29;20391;-88
2021/07/01 04:13:24;;;;;;;1.48;1.02;;;;;;;;;;4948559;29;20039;-87
2021/07/01 04:16:10;;;;;;;2.63;0.80;;;;;;;;;;4926505;28;20034;-88
2021/07/01 04:18:55;;;;;;;4.40;0.90;;;;;;;;;;4940211;28;20393;-88
2021/07/01 04:21:40;;;;;;;4.22;0.90;;;;;;;;;;4938890;28;20114;-87
2021/07/01 04:24:26;;;;;;;2.22;0.80;;;;;;;;;;4944365;28;20037;-87
2021/07/01 04:27:11;;;;;;;2.10;0.90;;;;;;;;;;4938238;28;20022;-87
2021/07/01 04:29:56;;;;;;;1.08;0.80;;;;;;;;;;4943068;29;20042;-87
2021/07/01 04:32:41;;;;;;;1.95;0.98;;;;;;;;;;4941740;28;20058;-86
2021/07/01 04:35:27;;;;;;;1.17;0.82;;;;;;;;;;4938124;28;20057;-88
2021/07/01 04:38:12;;;;;;;2.25;0.85;;;;;;;;;;4943238;28;20038;-88
2021/07/01 04:40:57;;;;;;;1.60;0.90;;;;;;;;;;4940057;28;20106;-89
2021/07/01 04:43:43;;;;;;;1.77;1.02;;;;;;;;;;4944491;28;20388;-88
2021/07/01 04:46:28;;;;;;;1.05;0.95;;;;;;;;;;4938687;28;20085;-89
2021/07/01 04:49:13;;;;;;;1.65;0.90;;;;;;;;;;4942247;29;20124;-89
2021/07/01 04:51:58;;;;;;;2.45;0.82;;;;;;;;;;4941852;28;20030;-87
2021/07/01 04:54:43;;;;;;;2.75;1.15;;;;;;;;;;4936655;28;20444;-86
2021/07/01 04:57:29;;;;;;;2.35;1.27;;;;;;;;;;4941864;28;20023;-87
2021/07/01 05:00:14;;;;;;;1.63;0.90;;;;;;;;;;4939951;28;20055;-87
2021/07/01 05:02:59;;;;;;;1.92;1.00;;;;;;;;;;4938928;28;20110;-86
2021/07/01 05:05:44;;;;;;;8.55;1.27;;;;;;;;;;4938183;28;20498;-85
2021/07/01 05:08:30;;;;;;;2.45;1.00;;;;;;;;;;4935532;28;20118;-86
2021/07/01 05:11:15;;;;;;;3.05;1.05;;;;;;;;;;4938318;28;20023;-87
2021/07/01 05:14:00;;;;;;;2.25;1.38;;;;;;;;;;4935501;29;21422;-88
2021/07/01 05:16:47;;;;;;;2.00;1.10;;;;;;;;;;4937544;29;20183;-87
2021/07/01 05:19:32;;;;;;;3.90;1.30;;;;;;;;;;4937490;29;20493;-85
2021/07/01 05:22:17;;;;;;;2.95;0.95;;;;;;;;;;4934441;29;20019;-86
2021/07/01 05:25:03;;;;;;;3.60;1.02;;;;;;;;;;4919938;29;20114;-86
2021/07/01 05:27:49;;;;;;;2.35;1.42;;;;;;;;;;4932386;29;20103;-87
2021/07/01 05:30:34;;;;;;;1.15;1.05;;;;;;;;;;4936565;29;20398;-87
2021/07/01 05:33:19;;;;;;;5.10;1.27;;;;;;;;;;4929799;29;20024;-87
2021/07/01 05:36:05;;;;;;;1.15;0.90;;;;;;;;;;4926929;29;20031;-87
2021/07/01 05:38:50;;;;;;;3.30;1.05;;;;;;;;;;4935815;29;20111;-88
2021/07/01 05:41:35;;;;;;;2.28;1.45;;;;;;;;;;4920277;29;20027;-85
2021/07/01 05:44:20;;;;;;;3.08;1.35;;;;;;;;;;4929862;29;20028;-87
2021/07/01 05:47:06;;;;;;;2.85;1.13;;;;;;;;;;4920635;29;20023;-86
2021/07/01 05:49:51;;;;;;;1.15;1.00;;;;;;;;;;4935315;28;20095;-88
2021/07/01 05:52:42;;;;;;;2.00;1.15;;;;;;;;;;4931669;29;20057;-94
2021/07/01 05:55:27;;;;;;;1.02;0.93;;;;;;;;;;4938048;29;20422;-94
2021/07/01 05:58:13;;;;;;;1.33;0.93;;;;;;;;;;4941360;29;20082;-90
2021/07/01 06:00:58;;;;;;;2.47;0.93;;;;;;;;;;4934772;29;20654;-90
2021/07/01 06:03:43;;;;;;;1.40;1.30;;;;;;;;;;4937603;29;20034;-95
2021/07/01 06:14:07;;;;;;;3.35;1.25;;;;;;;;;;5164014;23;20061;-88
2021/07/01 06:16:54;;;;;;;1.70;1.00;;;;;;;;;;4953281;28;20031;-89
2021/07/01 06:19:39;;;;;;;3.05;1.23;;;;;;;;;;4935981;28;20042;-88
2021/07/01 06:22:28;;;;;;;4.85;1.20;;;;;;;;;;4955179;28;20038;-90
2021/07/01 06:25:13;;;;;;;4.20;1.77;;;;;;;;;;4952032;28;20050;-86
2021/07/01 06:28:00;;;;;;;3.25;1.65;;;;;;;;;;4952051;28;20033;-85
2021/07/01 06:30:46;;;;;;;2.88;1.42;;;;;;;;;;4929614;28;20027;-86
2021/07/01 06:33:31;;;;;;;2.40;1.40;;;;;;;;;;4951966;28;20586;-85
2021/07/01 06:36:17;;;;;;;3.38;1.50;;;;;;;;;;4949523;28;20392;-85
2021/07/01 06:39:04;;;;;;;6.25;1.88;;;;;;;;;;4940669;28;20030;-82
2021/07/01 06:41:52;;;;;;;2.58;1.70;;;;;;;;;;4951004;28;20023;-85
2021/07/01 06:44:38;;;;;;;1.33;1.20;;;;;;;;;;4940752;28;20469;-84
2021/07/01 06:47:24;;;;;;;2.70;1.60;;;;;;;;;;4951336;28;20092;-85
2021/07/01 06:50:10;;;;;;;3.53;1.85;;;;;;;;;;4946549;28;20517;-86
2021/07/01 06:52:56;;;;;;;2.83;1.70;;;;;;;;;;4948372;28;20106;-86
2021/07/01 06:55:43;;;;;;;2.67;1.40;;;;;;;;;;4948904;28;20046;-84
2021/07/01 06:58:28;;;;;;;2.90;1.75;;;;;;;;;;4943100;28;20037;-85
2021/07/01 07:01:14;;;;;;;3.47;1.60;;;;;;;;;;4966547;28;20034;-84
2021/07/01 07:04:00;;;;;;;2.38;1.30;;;;;;;;;;4951400;28;20450;-84
2021/07/01 07:06:46;;;;;;;3.72;1.40;;;;;;;;;;4931614;28;20046;-84
2021/07/01 07:09:31;;;;;;;5.22;1.50;;;;;;;;;;4954504;28;20026;-84
2021/07/01 07:12:16;;;;;;;3.38;1.50;;;;;;;;;;4952013;28;20031;-84
2021/07/01 07:15:02;;;;;;;3.88;1.70;;;;;;;;;;4951909;28;20073;-85
2021/07/01 07:17:49;;;;;;;2.45;1.23;;;;;;;;;;4950428;28;20027;-86
2021/07/01 07:20:42;;;;;;;2.25;1.30;;;;;;;;;;4957277;28;20034;-85
2021/07/01 07:23:27;;;;;;;4.22;1.92;;;;;;;;;;4956847;28;20026;-84
2021/07/01 07:26:14;;;;;;;2.40;1.42;;;;;;;;;;4952131;28;20066;-82
2021/07/01 07:29:00;;;;;;;2.50;1.48;;;;;;;;;;4953162;28;21280;-89
2021/07/01 07:31:46;;;;;;;1.75;1.50;;;;;;;;;;4955943;28;20019;-83
2021/07/01 07:34:33;;;;;;;2.50;1.30;;;;;;;;;;4960380;28;20027;-83
2021/07/01 07:37:18;;;;;;;1.98;1.63;;;;;;;;;;4950957;28;20105;-84
2021/07/01 07:40:04;;;;;;;2.70;1.80;;;;;;;;;;4936047;28;20110;-89
2021/07/01 07:42:49;;;;;;;1.92;1.50;;;;;;;;;;4958135;28;20030;-89
2021/07/01 07:45:34;;;;;;;4.80;2.35;;;;;;;;;;4961595;28;20082;-88
2021/07/01 07:48:19;;;;;;;2.28;1.73;;;;;;;;;;4951325;28;20382;-88
2021/07/01 07:51:05;;;;;;;2.15;1.80;;;;;;;;;;4951547;28;20042;-89
2021/07/01 07:53:52;;;;;;;2.15;1.75;;;;;;;;;;4951250;28;20031;-86
2021/07/01 07:56:38;;;;;;;2.33;1.75;;;;;;;;;;4959611;28;20065;-86
2021/07/01 07:59:26;;;;;;;2.50;2.00;;;;;;;;;;4952316;28;20046;-89
2021/07/01 08:02:27;;;;;;;3.05;2.05;;;;;;;;;;4958524;28;20377;-90
2021/07/01 08:05:13;;;;;;;4.50;2.28;;;;;;;;;;4957417;28;20023;-88
2021/07/01 08:08:03;;;;;;;2.70;1.85;;;;;;;;;;4945964;28;20429;-89
2021/07/01 08:10:50;;;;;;;2.65;2.03;;;;;;;;;;4953019;28;20019;-88
2021/07/01 08:13:37;;;;;;;4.13;2.00;;;;;;;;;;4953353;28;20312;-87
2021/07/01 08:16:23;;;;;;;2.70;1.95;;;;;;;;;;4942970;28;20050;-87
2021/07/01 08:19:08;;;;;;;4.35;2.53;;;;;;;;;;4956462;28;20031;-88
2021/07/01 08:21:54;;;;;;;3.13;2.15;;;;;;;;;;4943754;28;20031;-91
2021/07/01 08:24:39;;;;;;;5.20;2.45;;;;;;;;;;4957492;28;20027;-93
2021/07/01 08:27:25;;;;;;;4.32;1.90;;;;;;;;;;4950335;28;20031;-81
2021/07/01 08:30:11;;;;;;;2.72;1.95;;;;;;;;;;4968800;28;20085;-90
2021/07/01 08:33:00;;;;;;;3.00;1.90;;;;;;;;;;4950918;28;20384;-93
2021/07/01 08:35:51;;;;;;;2.30;2.08;;;;;;;;;;4954922;28;20031;-86
2021/07/01 08:38:37;;;;;;;2.13;1.92;;;;;;;;;;4957137;28;20062;-87
2021/07/01 08:41:26;;;;;;;3.50;1.90;;;;;;;;;;4942992;28;20035;-87
2021/07/01 08:44:22;;;;;;;2.78;2.10;;;;;;;;;;4961237;28;20125;-88
2021/07/01 08:47:10;;;;;;;6.63;2.75;;;;;;;;;;4943166;28;20106;-88
2021/07/01 08:49:57;;;;;;;4.10;1.80;;;;;;;;;;4971933;28;20043;-87
2021/07/01 08:52:51;;;;;;;2.95;2.03;;;;;;;;;;4949801;28;20042;-90
2021/07/01 08:55:41;;;;;;;3.95;2.60;;;;;;;;;;4954596;28;20064;-88
2021/07/01 08:58:26;;;;;;;4.18;2.10;;;;;;;;;;4958792;28;20080;-88
2021/07/01 09:01:12;;;;;;;1.70;1.60;;;;;;;;;;4955866;28;20493;-90
2021/07/01 09:03:58;;;;;;;2.58;1.95;;;;;;;;;;4947384;28;20559;-90
2021/07/01 09:06:45;;;;;;;2.72;2.10;;;;;;;;;;4952263;28;20550;-90
2021/07/01 09:09:34;;;;;;;3.45;2.30;;;;;;;;;;4958008;28;20037;-89
2021/07/01 09:12:22;;;;;;;2.67;1.90;;;;;;;;;;4953284;28;20031;-89
2021/07/01 09:15:08;;;;;;;6.03;2.42;;;;;;;;;;4953192;28;20246;-88
2021/07/01 09:17:54;;;;;;;3.45;2.40;;;;;;;;;;4957693;28;20030;-90
2021/07/01 09:20:39;;;;;;;2.65;2.30;;;;;;;;;;4955986;28;20553;-88
2021/07/01 09:23:28;;;;;;;2.75;2.35;;;;;;;;;;4949357;28;20030;-85
2021/07/01 09:26:21;;;;;;;4.28;2.40;;;;;;;;;;4955090;28;20157;-86
2021/07/01 09:29:08;;;;;;;3.35;2.53;;;;;;;;;;4967583;28;20551;-88
2021/07/01 09:31:55;;;;;;;3.63;2.30;;;;;;;;;;4952844;28;20031;-86
2021/07/01 09:34:41;;;;;;;2.67;2.20;;;;;;;;;;4937950;28;20031;-85
2021/07/01 09:37:37;;;;;;;3.60;2.47;;;;;;;;;;4940322;28;20560;-87
2021/07/01 09:40:23;;;;;;;4.10;2.45;;;;;;;;;;4956008;28;20489;-86
2021/07/01 09:43:08;;;;;;;2.63;2.17;;;;;;;;;;4948055;28;20026;-85
2021/07/01 09:45:54;;;;;;;5.35;2.50;;;;;;;;;;4939457;28;20023;-85
2021/07/01 09:48:42;;;;;;;3.03;2.17;;;;;;;;;;4952308;28;20106;-86
2021/07/01 09:51:29;;;;;;;6.90;2.38;;;;;;;;;;4953936;28;20030;-85
2021/07/01 09:54:15;;;;;;;3.17;2.40;;;;;;;;;;4951017;28;20106;-86
2021/07/01 09:57:03;;;;;;;2.95;2.35;;;;;;;;;;4949631;28;20053;-85
2021/07/01 09:59:51;;;;;;;3.17;2.20;;;;;;;;;;4953960;28;20156;-85
2021/07/01 10:02:36;;;;;;;2.58;2.30;;;;;;;;;;4953315;28;20038;-87
2021/07/01 10:05:26;;;;;;;2.83;2.28;;;;;;;;;;4946351;28;20038;-85
2021/07/01 10:08:11;;;;;;;2.30;2.10;;;;;;;;;;4954931;28;20015;-85
2021/07/01 10:10:56;;;;;;;3.35;2.17;;;;;;;;;;4955360;28;20133;-83
2021/07/01 10:13:51;;;;;;;2.38;1.90;;;;;;;;;;4932982;28;20043;-86
2021/07/01 10:16:36;;;;;;;4.00;2.30;;;;;;;;;;4951810;28;20203;-85
2021/07/01 10:19:22;;;;;;;3.45;2.13;;;;;;;;;;4948718;28;20488;-82
2021/07/01 10:22:08;;;;;;;3.05;2.00;;;;;;;;;;4948705;28;20035;-81
2021/07/01 10:24:54;;;;;;;3.78;1.98;;;;;;;;;;4963520;28;20092;-82
2021/07/01 10:27:41;;;;;;;2.40;1.77;;;;;;;;;;4955651;28;20026;-81
2021/07/01 10:30:28;;;;;;;2.60;2.10;;;;;;;;;;4945675;28;20107;-81
2021/07/01 10:33:23;;;;;;;3.30;1.85;;;;;;;;;;4946638;28;20125;-83
2021/07/01 10:36:21;;;;;;;2.42;1.98;;;;;;;;;;4948003;28;20027;-82
2021/07/01 10:39:06;;;;;;;4.72;1.70;;;;;;;;;;4948646;28;20429;-82
2021/07/01 10:41:58;;;;;;;2.42;2.03;;;;;;;;;;4949532;28;20115;-79
2021/07/01 10:44:44;;;;;;;2.50;1.95;;;;;;;;;;4931889;28;20019;-81
2021/07/01 10:47:30;;;;;;;3.80;1.80;;;;;;;;;;4950978;28;20360;-83
2021/07/01 10:50:19;;;;;;;4.15;1.88;;;;;;;;;;4943754;28;20122;-83
2021/07/01 10:53:24;;;;;;;2.28;1.88;;;;;;;;;;4946092;28;20042;-82
2021/07/01 10:56:25;;;;;;;2.65;1.90;;;;;;;;;;4932923;28;20014;-82
2021/07/01 10:59:11;;;;;;;3.15;1.60;;;;;;;;;;4951461;28;20113;-83
2021/07/01 11:02:04;;;;;;;2.42;1.92;;;;;;;;;;4945535;28;20125;-82
2021/07/01 11:04:50;;;;;;;1.58;1.40;;;;;;;;;;4947283;28;20202;-83
2021/07/01 11:07:43;;;;;;;1.95;1.67;;;;;;;;;;4946194;28;20061;-82
2021/07/01 11:10:33;;;;;;;2.33;1.60;;;;;;;;;;4947155;28;20074;-82
2021/07/01 11:13:19;;;;;;;2.35;1.45;;;;;;;;;;4946533;28;20186;-82
2021/07/01 11:16:09;;;;;;;1.88;1.58;;;;;;;;;;4944439;28;20034;-81
2021/07/01 11:18:54;;;;;;;3.33;1.83;;;;;;;;;;4963577;28;20304;-82
2021/07/01 11:21:47;;;;;;;2.33;1.80;;;;;;;;;;4936689;28;20041;-83
2021/07/01 11:24:32;;;;;;;3.13;2.33;;;;;;;;;;4954650;28;20030;-83
2021/07/01 11:27:22;;;;;;;2.42;1.80;;;;;;;;;;4949416;28;20023;-84
2021/07/01 11:30:07;;;;;;;;;;;;;;;;;;4950892;28;20093;-83
2021/07/01 11:33:11;;;;;;;3.72;2.30;;;;;;;;;;4948539;28;19914;-83
2021/07/01 11:36:10;;;;;;;5.82;2.10;;;;;;;;;;4952167;28;20038;-83
2021/07/01 11:39:04;;;;;;;3.00;2.27;;;;;;;;;;4945881;28;20030;-84
2021/07/01 11:41:50;;;;;;;3.90;2.13;;;;;;;;;;4950115;28;20039;-83
2021/07/01 11:44:37;;;;;;;3.88;2.30;;;;;;;;;;4954460;28;20026;-83
2021/07/01 11:47:22;;;;;;;5.25;2.97;;;;;;;;;;4956075;28;20421;-85
2021/07/01 11:50:08;;;;;;;3.65;2.63;;;;;;;;;;4943438;28;20023;-88
2021/07/01 11:52:54;;;;;;;3.63;2.10;;;;;;;;;;4953573;28;20027;-86
2021/07/01 11:55:39;;;;;;;3.15;2.22;;;;;;;;;;4955934;28;20406;-89
2021/07/01 11:58:25;;;;;;;2.92;2.20;;;;;;;;;;4967625;28;20393;-88
2021/07/01 12:01:10;;;;;;;3.20;2.38;;;;;;;;;;4950434;28;20046;-87
2021/07/01 12:03:56;;;;;;;2.30;2.10;;;;;;;;;;4956194;28;20037;-89
2021/07/01 12:06:50;;;;;;;3.50;2.20;;;;;;;;;;4945880;28;20041;-85
2021/07/01 12:09:43;;;;;;;2.97;2.13;;;;;;;;;;4954937;28;20030;-87
2021/07/01 12:12:28;;;;;;;2.92;2.22;;;;;;;;;;4944631;28;20038;-88
2021/07/01 12:15:14;;;;;;;3.72;2.28;;;;;;;;;;4949459;28;20040;-86
2021/07/01 12:18:04;;;;;;;3.30;2.47;;;;;;;;;;4953741;28;20042;-88
2021/07/01 12:20:58;;;;;;;2.40;2.00;;;;;;;;;;4954140;28;20019;-83
2021/07/01 12:23:51;;;;;;;4.15;2.78;;;;;;;;;;4952771;28;20378;-87
2021/07/01 12:26:36;;;;;;;3.25;2.53;;;;;;;;;;4955648;28;20093;-86
2021/07/01 12:29:40;;;;;;;5.03;2.90;;;;;;;;;;4956357;28;20027;-87
2021/07/01 12:32:27;;;;;;;4.75;2.85;;;;;;;;;;4958406;28;20030;-86
2021/07/01 12:35:31;;;;;;;3.10;2.40;;;;;;;;;;4952200;28;20027;-83
2021/07/01 12:38:16;;;;;;;5.30;3.63;;;;;;;;;;4956118;28;20026;-85
2021/07/01 12:41:06;;;;;;;3.97;2.60;;;;;;;;;;4951196;28;20022;-85
2021/07/01 12:43:54;;;;;;;4.38;3.03;;;;;;;;;;4955558;28;20023;-86
2021/07/01 12:46:43;;;;;;;4.50;2.83;;;;;;;;;;4950011;28;20042;-86
2021/07/01 12:49:32;;;;;;;4.32;2.55;;;;;;;;;;4955085;28;20031;-87
2021/07/01 12:52:21;;;;;;;4.68;2.95;;;;;;;;;;4953258;28;20027;-89
2021/07/01 12:55:07;;;;;;;4.57;3.20;;;;;;;;;;4951253;28;20050;-85
2021/07/01 12:57:53;;;;;;;5.07;2.95;;;;;;;;;;4952602;28;20094;-86
2021/07/01 13:00:38;;;;;;;5.32;3.13;;;;;;;;;;4952491;28;20101;-86
2021/07/01 13:03:27;;;;;;;4.97;3.47;;;;;;;;;;4952301;28;20023;-87
2021/07/01 13:06:14;;;;;;;5.40;3.30;;;;;;;;;;4948916;28;20038;-86
2021/07/01 13:09:00;;;;;;;5.88;3.15;;;;;;;;;;4950675;28;20126;-85
2021/07/01 13:11:45;;;;;;;4.75;3.60;;;;;;;;;;4953857;28;20026;-86
2021/07/01 13:14:32;;;;;;;4.85;3.47;;;;;;;;;;4955499;28;20050;-86
2021/07/01 13:17:17;;;;;;;6.88;3.53;;;;;;;;;;4948268;28;20027;-85
2021/07/01 13:20:10;;;;;;;5.65;3.25;;;;;;;;;;4955046;28;20030;-85
2021/07/01 13:22:55;;;;;;;7.13;3.70;;;;;;;;;;4953683;28;20102;-85
2021/07/01 13:25:40;;;;;;;5.05;3.78;;;;;;;;;;4953762;28;20038;-86
2021/07/01 13:28:26;;;;;;;6.95;4.45;;;;;;;;;;4952105;28;20029;-83
2021/07/01 13:31:11;;;;;;;4.55;3.42;;;;;;;;;;4956377;28;20023;-87
2021/07/01 13:34:06;;;;;;;7.10;4.00;;;;;;;;;;4955840;28;20424;-87
2021/07/01 13:36:52;;;;;;;7.18;4.28;;;;;;;;;;4953322;28;20046;-86
2021/07/01 13:39:37;;;;;;;6.72;4.28;;;;;;;;;;4948170;28;20397;-87
2021/07/01 13:42:33;;;;;;;6.60;4.13;;;;;;;;;;4940794;28;20033;-87
2021/07/01 13:45:19;;;;;;;6.28;4.40;;;;;;;;;;4949322;28;20030;-88
2021/07/01 13:48:06;;;;;;;5.95;4.43;;;;;;;;;;4952801;28;20053;-87
2021/07/01 13:50:59;;;;;;;6.43;4.03;;;;;;;;;;4954614;28;20043;-88
2021/07/01 13:53:45;;;;;;;6.28;4.50;;;;;;;;;;4948111;28;20020;-88
2021/07/01 13:56:30;;;;;;;7.00;4.65;;;;;;;;;;4948901;28;20023;-88
2021/07/01 13:59:15;;;;;;;6.32;4.07;;;;;;;;;;4953100;28;20026;-86
2021/07/01 14:02:16;;;;;;;6.65;4.20;;;;;;;;;;4949956;28;20022;-85
2021/07/01 14:05:01;;;;;;;8.55;4.55;;;;;;;;;;4935962;28;20026;-83
2021/07/01 14:07:46;;;;;;;6.13;3.92;;;;;;;;;;4953509;28;20477;-86
2021/07/01 14:10:33;;;;;;;6.28;4.47;;;;;;;;;;4956968;28;20547;-87
2021/07/01 14:13:18;;;;;;;9.00;4.00;;;;;;;;;;4954341;28;20047;-88
2021/07/01 14:16:04;;;;;;;7.28;3.42;;;;;;;;;;4945182;28;20086;-87
2021/07/01 14:18:51;;;;;;;6.75;4.18;;;;;;;;;;4955416;28;20022;-87
2021/07/01 14:21:44;;;;;;;6.47;3.58;;;;;;;;;;4956321;28;20501;-87
2021/07/01 14:24:29;;;;;;;5.85;4.00;;;;;;;;;;4964017;28;20027;-86
2021/07/01 14:27:14;;;;;;;6.45;4.00;;;;;;;;;;4965687;28;20062;-88
2021/07/01 14:29:59;;;;;;;4.80;3.70;;;;;;;;;;4959573;28;20073;-86
2021/07/01 14:32:46;;;;;;;6.57;3.58;;;;;;;;;;4957637;28;20027;-85
2021/07/01 14:35:31;;;;;;;10.07;4.00;;;;;;;;;;4949966;28;20398;-84
2021/07/01 14:38:25;;;;;;;9.13;3.55;;;;;;;;;;4964940;28;20034;-85
2021/07/01 14:41:12;;;;;;;6.53;4.18;;;;;;;;;;4962612;28;20019;-83
2021/07/01 14:44:02;;;;;;;6.20;3.47;;;;;;;;;;4963757;28;20050;-85
2021/07/01 14:46:51;;;;;;;5.90;3.78;;;;;;;;;;4968530;28;20015;-82
2021/07/01 14:49:37;;;;;;;6.20;3.92;;;;;;;;;;4970365;28;20010;-83
2021/07/01 14:52:23;;;;;;;5.57;3.72;;;;;;;;;;4974336;28;20022;-84
2021/07/01 14:55:14;;;;;;;6.90;4.28;;;;;;;;;;4969764;28;20051;-86
2021/07/01 14:57:59;;;;;;;8.02;4.22;;;;;;;;;;4966621;28;20027;-89
2021/07/01 15:00:54;;;;;;;8.25;3.70;;;;;;;;;;4951923;28;20014;-88
2021/07/01 15:03:39;;;;;;;6.97;3.97;;;;;;;;;;4972782;28;20042;-86
2021/07/01 15:06:31;;;;;;;7.47;4.00;;;;;;;;;;4972236;28;20079;-84
2021/07/01 15:09:16;;;;;;;7.55;3.67;;;;;;;;;;4964732;28;20593;-86
2021/07/01 15:12:11;;;;;;;6.50;4.13;;;;;;;;;;4967896;28;20050;-94
2021/07/01 15:14:57;;;;;;;6.00;4.13;;;;;;;;;;5042832;23;20070;-88
2021/07/01 15:17:43;;;;;;;6.78;3.70;;;;;;;;;;4974029;28;20015;-88
2021/07/01 15:20:29;;;;;;;6.97;3.58;;;;;;;;;;4973801;28;20030;-85
2021/07/01 15:23:16;;;;;;;6.72;3.83;;;;;;;;;;4977657;28;20031;-87
2021/07/01 15:26:02;;;;;;;6.45;3.42;;;;;;;;;;4977138;28;20035;-88
2021/07/01 15:28:47;;;;;;;5.00;4.00;;;;;;;;;;4983037;28;20030;-85
2021/07/01 15:31:32;;;;;;;5.97;3.53;;;;;;;;;;4969335;28;20023;-86
2021/07/01 15:34:18;;;;;;;6.43;3.80;;;;;;;;;;4969200;28;19991;-85
2021/07/01 15:37:03;;;;;;;6.60;4.03;;;;;;;;;;4970947;28;20050;-84
2021/07/01 15:39:49;;;;;;;6.15;3.47;;;;;;;;;;4970089;28;20015;-89
2021/07/01 15:42:36;;;;;;;5.15;3.65;;;;;;;;;;4973429;28;20087;-88
2021/07/01 15:45:21;;;;;;;8.02;3.65;;;;;;;;;;4985639;28;20014;-87
2021/07/01 15:48:09;;;;;;;6.28;3.60;;;;;;;;;;4979042;28;20010;-85
2021/07/01 15:50:54;;;;;;;5.75;3.95;;;;;;;;;;4982128;28;20018;-90
2021/07/01 15:53:40;;;;;;;4.93;3.58;;;;;;;;;;4975101;28;20031;-87
2021/07/01 15:56:26;;;;;;;5.93;3.45;;;;;;;;;;4968095;28;20525;-86
2021/07/01 15:59:11;;;;;;;8.50;3.63;;;;;;;;;;4969303;28;20023;-80
2021/07/01 16:02:00;;;;;;;5.90;3.85;;;;;;;;;;4963578;28;20487;-84
2021/07/01 16:04:45;;;;;;;7.18;4.13;;;;;;;;;;4979823;28;20034;-84
2021/07/01 16:07:32;;;;;;;6.43;3.80;;;;;;;;;;4965278;28;20035;-84
2021/07/01 16:10:17;;;;;;;5.10;3.33;;;;;;;;;;4966453;28;20058;-87
2021/07/01 16:13:03;;;;;;;6.30;3.70;;;;;;;;;;4941245;28;20050;-81
2021/07/01 16:15:48;;;;;;;5.55;3.60;;;;;;;;;;4964733;28;20054;-82
2021/07/01 16:18:33;;;;;;;4.90;3.70;;;;;;;;;;4964739;28;20015;-86
2021/07/01 16:21:20;;;;;;;5.68;3.53;;;;;;;;;;4966062;28;20012;-87
2021/07/01 16:24:06;;;;;;;7.57;4.07;;;;;;;;;;4963016;28;20237;-87
2021/07/01 16:26:51;;;;;;;6.32;3.85;;;;;;;;;;4970763;28;20078;-86
2021/07/01 16:29:37;;;;;;;6.90;4.00;;;;;;;;;;4962081;28;20031;-85
2021/07/01 16:32:23;;;;;;;4.90;3.30;;;;;;;;;;4942994;28;20091;-88
2021/07/01 16:35:09;;;;;;;6.00;3.20;;;;;;;;;;4963495;28;19999;-86
2021/07/01 16:37:54;;;;;;;7.15;3.70;;;;;;;;;;4959764;28;20015;-85
2021/07/01 16:40:39;;;;;;;5.22;3.38;;;;;;;;;;4957338;28;20465;-85
2021/07/01 16:43:25;;;;;;;5.05;3.33;;;;;;;;;;4963307;28;20061;-87
2021/07/01 16:46:23;;;;;;;6.47;3.72;;;;;;;;;;4962065;28;20014;-85
2021/07/01 16:49:10;;;;;;;5.53;3.53;;;;;;;;;;4953543;28;20020;-85